createdAt,value
2023-04-01T00:00:00.395Z,98931.22
2023-04-01T00:02:31.511Z,98928.56
2023-04-01T00:05:01.298Z,98926.38
2023-04-01T00:07:30.636Z,98927.41
2023-04-01T00:09:58.012Z,98932.63
2023-04-01T00:12:29.192Z,98933.44
2023-04-01T00:14:56.127Z,98933.75
2023-04-01T00:17:23.687Z,98937.16
2023-04-01T00:19:53.114Z,98938.16
2023-04-01T00:22:23.072Z,98944.19
2023-04-01T00:24:50.020Z,98939.63
2023-04-01T00:27:17.384Z,98944.16
2023-04-01T00:29:50.932Z,98939.78
2023-04-01T00:32:19.824Z,98939.97
2023-04-01T00:34:55.265Z,98942.81
2023-04-01T00:37:47.146Z,98961.06
2023-04-01T00:40:47.875Z,98944.47
2023-04-01T00:43:21.404Z,98956.38
2023-04-01T00:45:58.402Z,98951.03
2023-04-01T00:48:36.933Z,98956.53
2023-04-01T00:51:23.490Z,98954.16
2023-04-01T00:54:10.611Z,98951.66
2023-04-01T00:56:50.980Z,98962.22
2023-04-01T00:59:29.446Z,98954.19
2023-04-01T01:02:03.777Z,98968.22
2023-04-01T01:04:50.670Z,98960.19
2023-04-01T01:07:35.509Z,98959.03
2023-04-01T01:10:30.971Z,98960.00
2023-04-01T01:13:12.552Z,98958.16
2023-04-01T01:16:24.082Z,98964.31
2023-04-01T01:19:06.129Z,98962.00
2023-04-01T01:22:32.954Z,98971.03
2023-04-01T01:26:00.795Z,98965.19
2023-04-01T01:29:07.200Z,98972.34
2023-04-01T01:32:35.062Z,98969.81
2023-04-01T01:35:26.716Z,98981.16
2023-04-01T01:38:13.012Z,98984.31
2023-04-01T01:40:57.673Z,98987.00
2023-04-01T01:43:36.942Z,98984.31
2023-04-01T01:46:17.213Z,98985.97
2023-04-01T01:48:56.531Z,98988.31
2023-04-01T01:51:27.366Z,98993.44
2023-04-01T01:54:03.448Z,98993.09
2023-04-01T01:56:35.327Z,98977.88
2023-04-01T01:59:18.934Z,98991.41
2023-04-01T02:02:00.621Z,98996.91
2023-04-01T02:05:03.829Z,99011.59
2023-04-01T02:07:41.000Z,99006.25
2023-04-01T02:10:08.797Z,99007.84
2023-04-01T02:12:51.268Z,99011.06
2023-04-01T02:15:37.752Z,99011.00
2023-04-01T02:18:06.110Z,99021.69
2023-04-01T02:20:34.023Z,99016.69
2023-04-01T02:23:01.284Z,99018.13
2023-04-01T02:25:38.683Z,99028.16
2023-04-01T02:28:12.383Z,99029.63
2023-04-01T02:30:52.444Z,99036.25
2023-04-01T02:33:36.229Z,99039.56
2023-04-01T02:36:25.336Z,99043.38
2023-04-01T02:38:55.711Z,99039.88
2023-04-01T02:41:23.726Z,99052.25
2023-04-01T02:43:53.505Z,99050.69
2023-04-01T02:46:27.967Z,99044.53
2023-04-01T02:49:05.674Z,99055.69
2023-04-01T02:51:33.939Z,99057.66
2023-04-01T02:54:06.977Z,99062.53
2023-04-01T02:56:49.209Z,99066.00
2023-04-01T02:59:18.778Z,99063.69
2023-04-01T03:02:02.001Z,99070.50
2023-04-01T03:04:28.924Z,99067.97
2023-04-01T03:06:58.295Z,99064.47
2023-04-01T03:09:31.213Z,99073.63
2023-04-01T03:12:07.476Z,99080.50
2023-04-01T03:14:34.392Z,99084.47
2023-04-01T03:17:01.743Z,99074.63
2023-04-01T03:19:31.272Z,99083.63
2023-04-01T03:21:58.482Z,99092.78
2023-04-01T03:24:25.262Z,99088.56
2023-04-01T03:26:51.929Z,99089.44
2023-04-01T03:29:21.831Z,99090.03
2023-04-01T03:31:55.877Z,99089.72
2023-04-01T03:34:22.628Z,99098.19
2023-04-01T03:36:55.654Z,99104.16
2023-04-01T03:39:23.056Z,99088.56
2023-04-01T03:41:50.644Z,99118.03
2023-04-01T03:44:20.271Z,99115.13
2023-04-01T03:46:55.929Z,99116.25
2023-04-01T03:49:22.640Z,99117.94
2023-04-01T03:51:52.482Z,99129.94
2023-04-01T03:54:23.679Z,99130.75
2023-04-01T03:56:50.946Z,99138.06
2023-04-01T03:59:20.903Z,99127.41
2023-04-01T04:01:53.717Z,99141.88
2023-04-01T04:04:23.151Z,99128.69
2023-04-01T04:06:50.072Z,99138.06
2023-04-01T04:09:18.844Z,99153.25
2023-04-01T04:12:12.282Z,99149.34
2023-04-01T04:14:53.252Z,99151.03
2023-04-01T04:17:23.247Z,99165.91
2023-04-01T04:19:54.923Z,99161.53
2023-04-01T04:22:21.683Z,99171.09
2023-04-01T04:24:59.508Z,99164.06
2023-04-01T04:27:26.441Z,99162.09
2023-04-01T04:29:53.148Z,99164.75
2023-04-01T04:32:22.851Z,99172.78
2023-04-01T04:34:59.095Z,99163.94
2023-04-01T04:37:36.597Z,99176.72
2023-04-01T04:40:03.897Z,99175.06
2023-04-01T04:42:33.642Z,99193.75
2023-04-01T04:45:00.524Z,99193.56
2023-04-01T04:47:27.254Z,99196.94
2023-04-01T04:49:53.922Z,99197.25
2023-04-01T04:52:27.454Z,99197.09
2023-04-01T04:55:02.801Z,99196.00
2023-04-01T04:57:31.618Z,99200.34
2023-04-01T05:00:01.505Z,99208.38
2023-04-01T05:02:28.203Z,99215.53
2023-04-01T05:04:55.558Z,99214.84
2023-04-01T05:07:24.720Z,99227.56
2023-04-01T05:09:54.345Z,99215.69
2023-04-01T05:12:22.957Z,99221.56
2023-04-01T05:14:52.753Z,99214.66
2023-04-01T05:17:28.837Z,99210.91
2023-04-01T05:19:55.670Z,99223.13
2023-04-01T05:22:29.626Z,99225.78
2023-04-01T05:25:14.645Z,99238.03
2023-04-01T05:27:46.573Z,99238.16
2023-04-01T05:30:13.721Z,99247.56
2023-04-01T05:33:03.200Z,99240.97
2023-04-01T05:35:30.354Z,99246.03
2023-04-01T05:38:00.316Z,99244.34
2023-04-01T05:40:30.180Z,99245.59
2023-04-01T05:42:57.794Z,99249.09
2023-04-01T05:46:05.510Z,99254.69
2023-04-01T05:48:36.061Z,99268.75
2023-04-01T05:51:06.184Z,99263.72
2023-04-01T05:53:36.296Z,99272.28
2023-04-01T05:56:10.314Z,99273.81
2023-04-01T05:58:58.483Z,99275.47
2023-04-01T06:01:32.209Z,99279.28
2023-04-01T06:04:20.843Z,99283.22
2023-04-01T06:06:47.684Z,99276.91
2023-04-01T06:09:57.112Z,99289.13
2023-04-01T06:13:06.157Z,99298.66
2023-04-01T06:16:12.089Z,99302.88
2023-04-01T06:20:01.629Z,99303.44
2023-04-01T06:23:18.207Z,99307.75
2023-04-01T06:26:12.909Z,99314.81
2023-04-01T06:29:23.320Z,99312.66
2023-04-01T06:33:32.658Z,99314.63
2023-04-01T06:40:05.117Z,99331.47
2023-04-01T06:42:57.300Z,99339.34
2023-04-01T06:46:02.160Z,99347.09
2023-04-01T06:49:58.950Z,99351.72
2023-04-01T06:53:05.757Z,99351.31
2023-04-01T06:56:13.611Z,99352.00
2023-04-01T06:59:13.309Z,99362.13
2023-04-01T07:02:22.716Z,99363.50
2023-04-01T07:04:59.453Z,99363.94
2023-04-01T07:07:56.276Z,99372.41
2023-04-01T07:11:06.973Z,99379.41
2023-04-01T07:14:16.158Z,99382.81
2023-04-01T07:17:31.411Z,99378.00
2023-04-01T07:21:04.822Z,99381.69
2023-04-01T07:24:03.022Z,99398.53
2023-04-01T07:26:32.541Z,99398.81
2023-04-01T07:29:02.383Z,99400.34
2023-04-01T07:32:10.812Z,99395.03
2023-04-01T07:34:58.251Z,99424.09
2023-04-01T09:15:32.178Z,99563.16
2023-04-01T10:01:32.022Z,99654.75
2023-04-01T10:08:42.061Z,99655.19
2023-04-01T10:12:17.548Z,99662.47
2023-04-01T14:41:57.961Z,100048.94
2023-04-01T15:02:29.866Z,100084.78
2023-04-01T16:07:23.283Z,100190.06
2023-04-01T16:10:43.273Z,100177.97
2023-04-01T16:17:37.690Z,100200.63
2023-04-01T16:24:08.628Z,100211.91
2023-04-01T16:50:39.025Z,100256.59
2023-04-01T16:53:15.850Z,100268.06
2023-04-01T17:02:01.302Z,100287.00
2023-04-01T17:18:51.429Z,100305.22
2023-04-01T17:22:18.215Z,100314.63
2023-04-01T17:25:47.376Z,100327.44
2023-04-01T17:29:24.963Z,100343.16
2023-04-01T17:32:49.909Z,100344.56
2023-04-01T18:00:04.387Z,100404.47
2023-04-01T18:03:22.232Z,100410.75
2023-04-01T18:56:23.262Z,100505.41
2023-04-01T18:59:21.556Z,100520.22
2023-04-01T19:02:46.506Z,100512.69
2023-04-01T19:06:09.003Z,100512.47
2023-04-01T20:24:57.128Z,100642.53
2023-04-01T20:55:48.618Z,100688.97
2023-04-01T20:58:38.693Z,100697.34
2023-04-01T21:02:05.538Z,100704.56
2023-04-01T21:12:13.424Z,100727.72
2023-04-01T21:15:58.977Z,100732.31
2023-04-01T21:19:07.351Z,100735.63
2023-04-01T21:43:24.144Z,100776.47
2023-04-01T21:46:37.587Z,100779.59
2023-04-01T21:49:59.000Z,100782.53
2023-04-01T21:53:16.171Z,100790.03
2023-04-01T21:56:02.968Z,100794.41
2023-04-01T21:59:26.008Z,100809.94
2023-04-01T22:02:44.648Z,100801.47
2023-04-01T22:12:58.262Z,100823.97
2023-04-01T23:22:19.961Z,100914.69
2023-04-01T23:25:05.883Z,100919.41
2023-04-01T23:28:25.307Z,100920.06
2023-04-01T23:30:53.797Z,100922.53
2023-04-01T23:33:32.598Z,100934.91
2023-04-01T23:36:18.509Z,100921.34
2023-04-01T23:38:50.897Z,100932.38
2023-04-01T23:41:37.488Z,100938.72
2023-04-01T23:44:17.425Z,100945.06
2023-04-01T23:46:50.921Z,100945.56
2023-04-01T23:49:50.193Z,100955.09
2023-04-01T23:52:49.038Z,100953.28
2023-04-01T23:55:29.146Z,100956.00
2023-04-01T23:58:16.404Z,100969.25
